Time;durP1;ratioP1;P1;durP2;ratioP2;P2;SDS_P1;SDS_P2;PMS_P1;PMS_P2;Temp;Humidity;BMP_temperature;BMP_pressure;BME280_temperature;BME280_humidity;BME280_pressure;Samples;Min_cycle;Max_cycle;Signal;HPM_P1;HPM_P2
2022/07/02 00:00:02;;;;;;;6.38;0.93;;;13.20;99.90;;;;;;5110469;28;20108;-55
2022/07/02 00:02:42;;;;;;;6.18;0.80;;;13.20;99.90;;;;;;5108827;28;20040;-55
2022/07/02 00:05:13;;;;;;;2.22;0.80;;;13.20;99.90;;;;;;5111308;28;20047;-55
2022/07/02 00:07:41;;;;;;;3.92;0.98;;;13.20;99.90;;;;;;5108898;28;20052;-57
2022/07/02 00:10:10;;;;;;;6.55;1.25;;;13.20;99.90;;;;;;5102306;28;20051;-56
2022/07/02 00:12:37;;;;;;;2.35;0.80;;;13.20;99.90;;;;;;5110945;28;20051;-57
2022/07/02 00:15:06;;;;;;;4.43;1.20;;;13.30;99.90;;;;;;5109438;28;20050;-57
2022/07/02 00:17:34;;;;;;;4.07;1.05;;;13.30;99.90;;;;;;5097362;28;20051;-55
2022/07/02 00:20:02;;;;;;;6.25;1.00;;;13.20;99.90;;;;;;5104241;28;20043;-54
2022/07/02 00:22:32;;;;;;;6.57;1.30;;;13.20;99.90;;;;;;5110281;28;20043;-57
2022/07/02 00:24:59;;;;;;;2.13;0.82;;;13.20;99.90;;;;;;5111089;28;20419;-57
2022/07/02 00:27:30;;;;;;;3.53;1.15;;;13.20;99.90;;;;;;5111076;28;20047;-56
2022/07/02 00:29:59;;;;;;;6.95;1.17;;;13.20;99.90;;;;;;5098991;28;20407;-55
2022/07/02 00:32:31;;;;;;;6.50;1.17;;;13.10;99.90;;;;;;5105797;28;20051;-55
2022/07/02 00:35:03;;;;;;;5.70;1.20;;;13.10;99.90;;;;;;5104266;28;20526;-54
2022/07/02 00:37:32;;;;;;;4.80;1.20;;;13.00;99.90;;;;;;5108823;28;20042;-55
2022/07/02 00:39:59;;;;;;;6.30;2.15;;;13.00;99.90;;;;;;5100115;28;20051;-55
2022/07/02 00:42:29;;;;;;;7.75;1.50;;;13.00;99.90;;;;;;5109660;28;20060;-56
2022/07/02 00:44:58;;;;;;;4.35;1.02;;;12.90;99.90;;;;;;5109572;28;20043;-58
2022/07/02 00:47:26;;;;;;;2.35;0.95;;;12.80;99.90;;;;;;5104509;28;20039;-54
2022/07/02 00:49:54;;;;;;;7.43;1.83;;;12.80;99.90;;;;;;5097391;28;20386;-56
2022/07/02 00:52:22;;;;;;;5.50;1.05;;;12.80;99.90;;;;;;5110731;28;20058;-57
2022/07/02 00:54:49;;;;;;;6.72;1.30;;;12.70;99.90;;;;;;5110521;28;20059;-55
2022/07/02 00:57:18;;;;;;;4.15;1.40;;;12.60;99.90;;;;;;5111408;28;20474;-55
2022/07/02 00:59:46;;;;;;;9.05;1.50;;;12.60;99.90;;;;;;5108988;28;20117;-55
2022/07/02 01:02:15;;;;;;;11.30;1.92;;;12.60;99.90;;;;;;5107681;28;20081;-55
2022/07/02 01:04:45;;;;;;;4.20;1.48;;;12.50;99.90;;;;;;5102936;28;20066;-55
2022/07/02 01:07:13;;;;;;;;;;;12.50;99.90;;;;;;5108585;28;20051;-56
2022/07/02 01:12:29;;;;;;;1.50;1.08;;;12.40;99.90;;;;;;5111377;28;20479;-56
2022/07/02 01:14:57;;;;;;;6.43;1.38;;;12.40;99.90;;;;;;5109222;28;20051;-55
2022/07/02 01:17:25;;;;;;;7.03;1.10;;;12.40;99.90;;;;;;5109352;28;20050;-54
2022/07/02 01:19:53;;;;;;;4.88;0.95;;;12.30;99.90;;;;;;5103377;28;20039;-56
2022/07/02 01:22:41;;;;;;;5.97;0.80;;;12.30;99.90;;;;;;5109110;28;20490;-55
2022/07/02 01:25:08;;;;;;;2.72;0.85;;;12.30;99.90;;;;;;5110199;28;20515;-54
2022/07/02 01:27:36;;;;;;;4.45;1.17;;;12.30;99.90;;;;;;5110987;28;20047;-55
2022/07/02 01:30:04;;;;;;;3.65;0.80;;;12.20;99.90;;;;;;5105087;28;20047;-57
2022/07/02 01:32:33;;;;;;;1.10;0.80;;;12.20;99.90;;;;;;5103977;28;20039;-57
2022/07/02 01:35:06;;;;;;;2.93;1.03;;;12.20;99.90;;;;;;5110285;28;20048;-57
2022/07/02 01:37:33;;;;;;;3.53;0.80;;;12.10;99.90;;;;;;5111876;28;20547;-58
2022/07/02 01:40:01;;;;;;;2.92;0.95;;;12.10;99.90;;;;;;5105350;28;20051;-57
2022/07/02 01:42:29;;;;;;;2.45;1.05;;;12.10;99.90;;;;;;5110294;28;20052;-57
2022/07/02 01:44:57;;;;;;;4.78;1.00;;;12.00;99.90;;;;;;5110247;28;20410;-58
2022/07/02 01:47:25;;;;;;;1.98;0.85;;;12.00;99.90;;;;;;5108278;28;20410;-57
2022/07/02 01:49:52;;;;;;;5.03;1.40;;;12.00;99.90;;;;;;5112194;28;20054;-57
2022/07/02 01:52:20;;;;;;;3.17;0.82;;;12.00;99.90;;;;;;5111981;28;20043;-57
2022/07/02 01:54:47;;;;;;;9.57;2.10;;;12.00;99.90;;;;;;5112340;28;20395;-56
2022/07/02 01:57:15;;;;;;;2.85;1.33;;;12.00;99.90;;;;;;5111144;28;20395;-58
2022/07/02 01:59:43;;;;;;;2.25;0.73;;;11.90;99.90;;;;;;5110382;28;20403;-57
2022/07/02 02:02:11;;;;;;;3.45;0.90;;;12.00;99.90;;;;;;5112267;28;20062;-56
2022/07/02 02:04:39;;;;;;;4.70;1.30;;;12.00;99.90;;;;;;5110635;28;20051;-58
2022/07/02 02:07:07;;;;;;;5.97;1.20;;;12.00;99.90;;;;;;5110773;28;20071;-58
2022/07/02 02:09:34;;;;;;;2.72;0.90;;;12.00;99.90;;;;;;5112399;28;20504;-58
2022/07/02 02:12:03;;;;;;;2.28;1.38;;;12.10;99.90;;;;;;5111955;28;20051;-57
2022/07/02 02:14:30;;;;;;;5.88;1.60;;;12.10;99.90;;;;;;5111729;28;20055;-57
2022/07/02 02:16:58;;;;;;;3.97;0.80;;;12.10;99.90;;;;;;5111775;28;20050;-58
2022/07/02 02:19:26;;;;;;;0.98;0.70;;;12.10;99.90;;;;;;5112005;28;20520;-57
2022/07/02 02:21:55;;;;;;;8.40;1.00;;;12.20;99.90;;;;;;5111921;28;20039;-58
2022/07/02 02:24:24;;;;;;;5.90;1.15;;;12.30;99.90;;;;;;5111859;28;20042;-58
2022/07/02 02:26:51;;;;;;;4.47;1.00;;;12.30;99.90;;;;;;5111070;28;20051;-58
2022/07/02 02:29:19;;;;;;;4.05;1.00;;;12.30;99.90;;;;;;5112029;28;20055;-59
2022/07/02 02:31:46;;;;;;;4.00;0.80;;;12.40;99.90;;;;;;5111806;28;20395;-59
2022/07/02 02:34:14;;;;;;;5.53;0.85;;;12.50;99.90;;;;;;5110663;28;20399;-58
2022/07/02 02:36:42;;;;;;;10.27;2.00;;;12.50;99.90;;;;;;5111772;28;20058;-57
2022/07/02 02:39:09;;;;;;;8.73;1.58;;;12.60;99.90;;;;;;5110665;28;20044;-55
2022/07/02 02:41:37;;;;;;;2.45;1.00;;;12.60;99.90;;;;;;5111651;28;20054;-56
2022/07/02 02:44:04;;;;;;;0.82;0.60;;;12.70;99.90;;;;;;5111708;28;20043;-54
2022/07/02 02:46:32;;;;;;;8.93;0.85;;;12.70;99.90;;;;;;5111648;28;20050;-57
2022/07/02 02:49:00;;;;;;;2.65;0.80;;;12.70;99.90;;;;;;5111702;28;20039;-56
2022/07/02 02:51:27;;;;;;;4.47;0.90;;;12.80;99.90;;;;;;5111635;28;20402;-58
2022/07/02 02:53:55;;;;;;;4.50;0.90;;;12.80;99.90;;;;;;5115293;28;20050;-58
2022/07/02 02:56:22;;;;;;;3.17;0.82;;;12.80;99.90;;;;;;5113985;28;20039;-57
2022/07/02 02:58:50;;;;;;;4.10;1.10;;;12.80;99.90;;;;;;5113602;28;20058;-58
2022/07/02 03:01:17;;;;;;;5.57;1.02;;;12.80;99.90;;;;;;5113540;28;20055;-58
2022/07/02 03:03:45;;;;;;;7.30;1.20;;;12.80;99.90;;;;;;5115148;28;20050;-58
2022/07/02 03:06:13;;;;;;;2.53;0.80;;;12.80;99.90;;;;;;5113550;28;20048;-58
2022/07/02 03:08:40;;;;;;;3.05;0.93;;;12.80;99.90;;;;;;5114070;28;20041;-58
2022/07/02 03:11:08;;;;;;;3.55;1.38;;;12.80;99.90;;;;;;5112496;28;20048;-58
2022/07/02 03:13:36;;;;;;;4.47;1.00;;;12.70;99.90;;;;;;5113261;28;20503;-57
2022/07/02 03:16:04;;;;;;;5.28;1.08;;;12.70;99.90;;;;;;5113255;28;20066;-58
2022/07/02 03:18:33;;;;;;;7.63;1.27;;;12.60;99.90;;;;;;5114173;28;20097;-58
2022/07/02 03:21:00;;;;;;;4.85;0.98;;;12.60;99.90;;;;;;5113917;28;20295;-58
2022/07/02 03:23:28;;;;;;;2.05;0.93;;;12.60;99.90;;;;;;5114881;28;20066;-57
2022/07/02 03:25:56;;;;;;;7.53;2.13;;;12.50;99.90;;;;;;5112601;28;20043;-56
2022/07/02 03:28:23;;;;;;;2.67;0.95;;;12.50;99.90;;;;;;5114910;28;20427;-57
2022/07/02 03:30:51;;;;;;;4.20;1.20;;;12.60;99.90;;;;;;5115155;28;20044;-58
2022/07/02 03:33:19;;;;;;;2.90;1.15;;;12.60;99.90;;;;;;5113722;28;20066;-58
2022/07/02 03:35:46;;;;;;;4.28;1.13;;;12.60;99.90;;;;;;5114793;28;20044;-58
2022/07/02 03:38:14;;;;;;;5.43;0.98;;;12.70;99.90;;;;;;5113602;28;20047;-58
2022/07/02 03:40:42;;;;;;;2.65;0.85;;;12.70;99.90;;;;;;5114590;28;20044;-57
2022/07/02 03:43:09;;;;;;;5.97;1.17;;;12.70;99.90;;;;;;5114649;28;20051;-59
2022/07/02 03:45:37;;;;;;;0.95;0.80;;;12.80;99.90;;;;;;5113408;28;20043;-59
2022/07/02 03:48:05;;;;;;;3.42;1.00;;;12.80;99.90;;;;;;5111526;28;20051;-57
2022/07/02 03:50:34;;;;;;;1.75;0.93;;;12.80;99.90;;;;;;5113095;28;20046;-58
2022/07/02 03:53:02;;;;;;;5.22;1.40;;;12.80;99.90;;;;;;5114543;28;20051;-57
2022/07/02 03:55:30;;;;;;;2.58;1.13;;;12.80;99.90;;;;;;5114362;28;20040;-55
2022/07/02 03:57:58;;;;;;;5.60;1.60;;;12.80;99.90;;;;;;5114432;28;20058;-55
2022/07/02 04:00:26;;;;;;;3.05;1.23;;;12.80;99.90;;;;;;5114620;28;20050;-55
2022/07/02 04:02:53;;;;;;;9.75;1.75;;;12.70;99.90;;;;;;5114029;28;20059;-56
2022/07/02 04:05:21;;;;;;;3.13;1.52;;;12.70;99.90;;;;;;5111548;28;20043;-56
2022/07/02 04:07:49;;;;;;;2.20;1.05;;;12.70;99.90;;;;;;5114291;28;20039;-57
2022/07/02 04:10:16;;;;;;;4.07;1.20;;;12.70;99.90;;;;;;5114203;28;20406;-57
2022/07/02 04:12:44;;;;;;;3.95;1.70;;;12.60;99.90;;;;;;5110315;28;20043;-56
2022/07/02 04:15:12;;;;;;;5.65;1.52;;;12.60;99.90;;;;;;5111652;28;20054;-57
2022/07/02 04:17:40;;;;;;;1.70;1.55;;;12.50;99.90;;;;;;5111298;28;20042;-57
2022/07/02 04:20:08;;;;;;;6.50;1.50;;;12.50;99.90;;;;;;5099764;28;20044;-57
2022/07/02 04:22:35;;;;;;;3.50;1.52;;;12.50;99.90;;;;;;5113758;28;20046;-55
2022/07/02 04:25:03;;;;;;;3.60;1.55;;;12.40;99.90;;;;;;5113782;28;20039;-55
2022/07/02 04:27:31;;;;;;;7.60;1.85;;;12.40;99.90;;;;;;5113462;28;20059;-56
2022/07/02 04:29:58;;;;;;;5.85;1.90;;;12.40;99.90;;;;;;5113737;28;20055;-55
2022/07/02 04:32:28;;;;;;;2.60;1.13;;;12.50;99.90;;;;;;5113254;28;20043;-56
2022/07/02 04:34:56;;;;;;;3.05;0.90;;;12.40;99.90;;;;;;5113678;28;20487;-56
2022/07/02 04:37:23;;;;;;;3.17;1.10;;;12.50;99.90;;;;;;5113531;28;20048;-56
2022/07/02 04:39:51;;;;;;;1.60;1.10;;;12.50;99.90;;;;;;5113460;28;20367;-57
2022/07/02 04:42:19;;;;;;;5.30;1.17;;;12.60;99.90;;;;;;5110787;28;20035;-57
2022/07/02 04:44:46;;;;;;;4.38;0.88;;;12.60;99.90;;;;;;5111430;28;20058;-56
2022/07/02 04:47:14;;;;;;;10.00;1.40;;;12.60;99.90;;;;;;5109422;28;20047;-57
2022/07/02 04:49:42;;;;;;;1.55;0.73;;;12.60;99.90;;;;;;5100676;28;20434;-57
2022/07/02 04:52:10;;;;;;;4.30;0.80;;;12.60;99.90;;;;;;5107588;28;20045;-58
2022/07/02 04:54:38;;;;;;;4.40;1.00;;;12.60;99.90;;;;;;5104744;28;20043;-56
2022/07/02 04:57:06;;;;;;;1.73;0.90;;;12.70;99.90;;;;;;5102158;28;20051;-57
2022/07/02 04:59:34;;;;;;;4.07;0.93;;;12.70;99.90;;;;;;5108643;28;20180;-57
2022/07/02 05:02:05;;;;;;;3.47;1.08;;;12.50;99.90;;;;;;5102898;28;20059;-56
2022/07/02 05:04:33;;;;;;;2.13;1.02;;;12.80;99.90;;;;;;5103306;27;20055;-56
2022/07/02 05:07:00;;;;;;;5.53;1.13;;;12.80;99.90;;;;;;5087536;28;20043;-57
2022/07/02 05:09:28;;;;;;;3.00;0.90;;;12.80;99.90;;;;;;5094721;28;20065;-57
2022/07/02 05:11:56;;;;;;;2.53;0.90;;;12.80;99.90;;;;;;5110217;28;20048;-57
2022/07/02 05:14:24;;;;;;;2.72;0.63;;;12.80;99.90;;;;;;5108029;28;20078;-57
2022/07/02 05:16:52;;;;;;;3.65;0.60;;;12.90;99.90;;;;;;5109706;28;20541;-57
2022/07/02 05:19:20;;;;;;;4.55;1.88;;;12.90;99.90;;;;;;5092660;28;20059;-56
2022/07/02 05:21:47;;;;;;;3.42;0.80;;;12.90;99.90;;;;;;5105580;28;20042;-56
2022/07/02 05:24:15;;;;;;;2.70;0.90;;;12.80;99.90;;;;;;5108352;28;20062;-57
2022/07/02 05:26:43;;;;;;;4.28;0.80;;;12.90;99.90;;;;;;5111098;28;20059;-56
2022/07/02 05:29:10;;;;;;;5.03;0.88;;;12.90;99.90;;;;;;5108297;28;20047;-60
2022/07/02 05:31:38;;;;;;;3.63;0.73;;;12.90;99.90;;;;;;5101738;28;20061;-58
2022/07/02 05:34:06;;;;;;;3.40;0.93;;;12.90;99.90;;;;;;5087237;28;20048;-56
2022/07/02 05:36:33;;;;;;;3.80;0.80;;;12.90;99.90;;;;;;5108124;28;20035;-56
2022/07/02 05:39:01;;;;;;;3.67;0.80;;;12.90;99.90;;;;;;5094254;28;20052;-55
2022/07/02 05:41:29;;;;;;;3.22;0.77;;;12.90;99.90;;;;;;5103276;28;20051;-57
2022/07/02 05:43:56;;;;;;;3.35;0.90;;;12.90;99.90;;;;;;5110537;28;20044;-57
2022/07/02 05:46:24;;;;;;;2.78;0.90;;;12.90;99.90;;;;;;5108219;28;20044;-57
2022/07/02 05:48:52;;;;;;;1.95;1.00;;;12.90;99.90;;;;;;5091750;28;20048;-56
2022/07/02 05:51:19;;;;;;;4.00;0.93;;;12.90;99.90;;;;;;5087708;28;20051;-57
2022/07/02 05:53:47;;;;;;;4.25;1.20;;;12.80;99.90;;;;;;5096026;28;20044;-57
2022/07/02 05:56:15;;;;;;;2.45;1.30;;;12.80;99.90;;;;;;5109271;28;20047;-57
2022/07/02 05:58:43;;;;;;;5.47;1.10;;;12.80;99.90;;;;;;5094044;28;20056;-56
2022/07/02 06:01:10;;;;;;;5.03;0.90;;;12.80;99.90;;;;;;5086618;28;20051;-56
2022/07/02 06:03:38;;;;;;;3.33;0.88;;;12.80;99.90;;;;;;5094672;28;20048;-57
2022/07/02 06:08:52;;;;;;;3.25;0.80;;;12.90;99.90;;;;;;5092313;28;20546;-56
2022/07/02 06:11:20;;;;;;;4.57;1.52;;;12.90;99.90;;;;;;5089415;28;20055;-56
2022/07/02 06:13:47;;;;;;;2.47;0.93;;;12.90;99.90;;;;;;5101625;28;20055;-55
2022/07/02 06:16:15;;;;;;;1.77;1.13;;;13.00;99.90;;;;;;5108003;28;20048;-56
2022/07/02 06:18:43;;;;;;;2.22;1.00;;;12.90;99.90;;;;;;5083987;28;20532;-56
2022/07/02 06:21:10;;;;;;;7.38;1.05;;;12.90;99.90;;;;;;5107784;28;20044;-55
2022/07/02 06:23:38;;;;;;;2.67;1.30;;;12.90;99.90;;;;;;5110113;28;20048;-56
2022/07/02 06:26:06;;;;;;;1.42;0.70;;;13.00;99.90;;;;;;5110788;28;20047;-56
2022/07/02 06:28:33;;;;;;;2.33;0.73;;;13.00;99.90;;;;;;5102026;28;20048;-56
2022/07/02 06:31:01;;;;;;;2.42;0.93;;;13.00;99.90;;;;;;5094102;28;20067;-56
2022/07/02 06:33:28;;;;;;;1.30;0.75;;;13.00;99.90;;;;;;5101082;28;20051;-56
2022/07/02 06:35:56;;;;;;;4.97;0.98;;;13.00;99.90;;;;;;5109904;28;20491;-57
2022/07/02 06:38:24;;;;;;;2.15;1.00;;;13.00;99.90;;;;;;5103084;28;20563;-57
2022/07/02 06:40:53;;;;;;;0.80;0.70;;;13.10;99.90;;;;;;5111498;28;20048;-58
2022/07/02 06:43:23;;;;;;;2.42;0.98;;;13.10;99.90;;;;;;5112739;28;20048;-57
2022/07/02 06:45:51;;;;;;;;;;;13.10;99.90;;;;;;5114587;28;20509;-57
2022/07/02 06:48:18;;;;;;;1.85;0.40;;;13.10;99.90;;;;;;5101033;28;19931;-57
2022/07/02 06:50:47;;;;;;;0.63;0.57;;;13.10;99.90;;;;;;5109556;28;20131;-57
2022/07/02 06:53:15;;;;;;;2.35;0.55;;;13.10;99.90;;;;;;5113285;28;20064;-56
2022/07/02 06:55:43;;;;;;;2.08;0.55;;;13.10;99.90;;;;;;5113704;28;20036;-57
2022/07/02 06:58:10;;;;;;;1.38;0.63;;;13.20;99.90;;;;;;5110581;28;20047;-56
2022/07/02 07:00:38;;;;;;;2.63;0.63;;;13.30;99.90;;;;;;5111790;28;20050;-57
2022/07/02 07:03:06;;;;;;;0.30;0.30;;;13.30;99.90;;;;;;5109329;28;20054;-57
2022/07/02 07:05:35;;;;;;;0.22;0.22;;;13.30;99.90;;;;;;5090416;28;20040;-57
2022/07/02 07:08:03;;;;;;;0.20;0.20;;;13.40;99.90;;;;;;5105880;28;20046;-57
2022/07/02 07:10:31;;;;;;;0.30;0.30;;;13.40;99.90;;;;;;5113477;28;20044;-57
2022/07/02 07:12:59;;;;;;;0.40;0.35;;;13.50;99.90;;;;;;5112489;28;20043;-57
2022/07/02 07:15:26;;;;;;;2.03;0.20;;;13.50;99.90;;;;;;5111465;28;20043;-57
2022/07/02 07:17:54;;;;;;;0.45;0.20;;;13.50;99.90;;;;;;5111104;28;20043;-56
2022/07/02 07:20:27;;;;;;;0.20;0.20;;;13.60;99.90;;;;;;5103227;28;20051;-58
2022/07/02 07:22:55;;;;;;;0.38;0.30;;;13.60;99.90;;;;;;5112174;28;20063;-57
2022/07/02 07:25:23;;;;;;;3.58;0.40;;;13.60;99.90;;;;;;5110311;28;20039;-58
2022/07/02 07:27:51;;;;;;;2.60;0.40;;;13.70;99.90;;;;;;5104298;28;20040;-56
2022/07/02 07:30:19;;;;;;;0.52;0.45;;;13.80;99.90;;;;;;5093045;28;20051;-57
2022/07/02 07:32:46;;;;;;;1.65;0.40;;;13.80;99.90;;;;;;5100438;28;20042;-57
2022/07/02 07:35:14;;;;;;;0.52;0.30;;;13.80;99.90;;;;;;5093161;28;20062;-58
2022/07/02 07:37:57;;;;;;;0.40;0.40;;;13.90;99.90;;;;;;5099232;28;20530;-57
2022/07/02 07:40:29;;;;;;;1.75;0.30;;;14.00;99.90;;;;;;5109737;28;20051;-58
2022/07/02 07:42:56;;;;;;;0.45;0.25;;;14.10;99.90;;;;;;5111248;28;20046;-58
2022/07/02 07:45:24;;;;;;;0.43;0.30;;;14.10;99.90;;;;;;5112380;28;20084;-58
2022/07/02 07:47:51;;;;;;;1.35;0.28;;;14.20;99.90;;;;;;5100701;28;20036;-57
2022/07/02 07:50:19;;;;;;;0.50;0.30;;;14.20;99.90;;;;;;5091386;28;20048;-56
2022/07/02 07:52:47;;;;;;;2.80;0.32;;;14.30;99.90;;;;;;5107856;28;20510;-56
2022/07/02 07:55:14;;;;;;;0.45;0.35;;;14.30;99.90;;;;;;5107115;28;20058;-56
2022/07/02 07:57:42;;;;;;;2.20;0.28;;;14.30;99.90;;;;;;5106937;28;20051;-56
2022/07/02 08:00:10;;;;;;;0.98;0.30;;;14.40;99.90;;;;;;5092181;28;20066;-57
2022/07/02 08:02:40;;;;;;;0.45;0.45;;;14.50;99.90;;;;;;5090993;28;20042;-57
2022/07/02 08:05:08;;;;;;;1.52;0.30;;;14.60;99.90;;;;;;5103604;28;20043;-56
2022/07/02 08:07:38;;;;;;;1.02;0.43;;;14.60;99.90;;;;;;5107642;28;20040;-57
2022/07/02 08:10:08;;;;;;;2.28;0.40;;;14.60;99.90;;;;;;5103903;28;20051;-56
2022/07/02 08:12:35;;;;;;;;;;;14.60;99.90;;;;;;5110937;28;20070;-56
2022/07/02 08:15:04;;;;;;;2.35;0.60;;;14.70;99.90;;;;;;5110877;28;20465;-57
2022/07/02 08:17:32;;;;;;;1.73;0.43;;;14.80;99.90;;;;;;5110624;28;20062;-57
2022/07/02 08:20:02;;;;;;;14.00;0.77;;;14.90;99.90;;;;;;5097974;28;20040;-58
2022/07/02 08:22:30;;;;;;;2.28;0.38;;;15.00;99.90;;;;;;5105794;28;20048;-57
2022/07/02 08:24:58;;;;;;;1.15;0.28;;;15.10;99.90;;;;;;5110865;28;20051;-58
2022/07/02 08:27:26;;;;;;;0.35;0.35;;;15.20;99.90;;;;;;5107546;28;20043;-58
2022/07/02 08:29:53;;;;;;;0.93;0.30;;;15.30;99.90;;;;;;5107184;28;20509;-57
2022/07/02 08:32:22;;;;;;;0.90;0.45;;;15.30;99.90;;;;;;5106023;28;20048;-58
2022/07/02 08:34:50;;;;;;;2.35;0.40;;;15.30;99.90;;;;;;5097406;28;20044;-58
2022/07/02 08:37:18;;;;;;;1.33;0.73;;;15.30;99.90;;;;;;5106433;28;20043;-58
2022/07/02 08:39:45;;;;;;;0.57;0.35;;;15.40;99.90;;;;;;5104777;28;20058;-57
2022/07/02 08:42:24;;;;;;;0.40;0.30;;;15.30;99.90;;;;;;5111646;28;20043;-57
2022/07/02 08:44:53;;;;;;;1.45;0.45;;;15.40;99.90;;;;;;5109585;28;20043;-57
2022/07/02 08:47:22;;;;;;;0.45;0.43;;;15.40;99.90;;;;;;5106926;28;20411;-58
2022/07/02 08:49:52;;;;;;;2.88;0.40;;;15.50;99.90;;;;;;5097417;28;20044;-56
2022/07/02 08:52:21;;;;;;;1.38;0.40;;;15.50;99.90;;;;;;5091199;28;20044;-57
2022/07/02 08:54:53;;;;;;;3.63;0.57;;;15.60;99.90;;;;;;5109588;28;20474;-57
2022/07/02 08:57:22;;;;;;;0.30;0.30;;;15.60;99.90;;;;;;5108971;28;20048;-56
2022/07/02 08:59:50;;;;;;;1.08;0.50;;;15.60;99.90;;;;;;5105353;28;20047;-56
2022/07/02 09:02:19;;;;;;;4.40;0.60;;;15.60;99.90;;;;;;5108771;28;20052;-55
2022/07/02 09:04:49;;;;;;;3.92;0.50;;;15.70;99.90;;;;;;5104998;28;20040;-56
2022/07/02 09:07:17;;;;;;;3.33;0.60;;;15.80;99.90;;;;;;5102294;28;20046;-56
2022/07/02 09:09:48;;;;;;;1.55;0.40;;;15.90;99.90;;;;;;5105165;28;20054;-55
2022/07/02 09:12:15;;;;;;;;;;;16.00;99.90;;;;;;5110476;28;20052;-56
2022/07/02 09:14:44;;;;;;;0.95;0.20;;;16.10;99.90;;;;;;5108225;28;19927;-58
2022/07/02 09:17:12;;;;;;;1.65;0.40;;;16.20;99.90;;;;;;5109878;28;20039;-57
2022/07/02 09:19:40;;;;;;;4.57;0.70;;;16.30;99.90;;;;;;5106968;28;20036;-56
2022/07/02 09:22:08;;;;;;;2.85;0.52;;;16.40;99.90;;;;;;5103180;28;20393;-56
2022/07/02 09:24:42;;;;;;;2.13;0.40;;;16.60;99.90;;;;;;5109967;28;20051;-56
2022/07/02 09:27:16;;;;;;;1.25;0.57;;;16.80;99.90;;;;;;5107464;28;20759;-56
2022/07/02 09:29:46;;;;;;;5.78;0.60;;;16.90;99.90;;;;;;5108636;28;20055;-55
2022/07/02 09:32:15;;;;;;;2.97;0.40;;;17.10;99.90;;;;;;5092713;28;20533;-55
2022/07/02 09:34:45;;;;;;;2.63;0.60;;;17.30;99.90;;;;;;5107919;28;20043;-56
2022/07/02 09:37:19;;;;;;;3.95;0.50;;;17.40;99.90;;;;;;5099787;28;20399;-55
2022/07/02 09:39:48;;;;;;;2.42;0.52;;;17.50;99.90;;;;;;5110530;28;20058;-57
2022/07/02 09:42:31;;;;;;;6.57;0.65;;;17.50;99.90;;;;;;5108365;28;20383;-58
2022/07/02 09:45:01;;;;;;;4.47;0.63;;;17.60;99.90;;;;;;5107636;28;20051;-55
2022/07/02 09:47:37;;;;;;;;;;;17.50;99.90;;;;;;5105162;28;20487;-57
2022/07/02 09:50:08;;;;;;;;;;;17.60;99.90;;;;;;5091308;28;20315;-55
2022/07/02 09:52:37;;;;;;;;;;;17.60;99.90;;;;;;5106297;28;20698;-55
2022/07/02 09:55:04;;;;;;;;;;;17.50;99.90;;;;;;5109465;28;19927;-56
2022/07/02 09:57:47;;;;;;;;;;;17.50;99.90;;;;;;5106786;28;19920;-57
2022/07/02 10:00:15;;;;;;;;;;;17.50;99.90;;;;;;5090608;28;19927;-56
2022/07/02 10:02:42;;;;;;;;;;;17.50;99.90;;;;;;5089323;28;19920;-56
2022/07/02 10:05:09;;;;;;;;;;;17.60;99.90;;;;;;5106098;28;19927;-55
2022/07/02 10:07:37;;;;;;;;;;;17.80;99.90;;;;;;5100781;28;20492;-55
2022/07/02 10:10:05;;;;;;;;;;;18.00;99.90;;;;;;5098199;28;19927;-56
2022/07/02 10:12:33;;;;;;;;;;;18.10;99.90;;;;;;5101548;28;19924;-58
2022/07/02 10:15:04;;;;;;;;;;;18.20;99.90;;;;;;5106793;28;19920;-58
2022/07/02 10:17:33;;;;;;;;;;;18.30;99.90;;;;;;5101468;28;20291;-57
2022/07/02 10:20:02;;;;;;;;;;;18.40;99.90;;;;;;5088222;28;19920;-55
2022/07/02 10:22:30;;;;;;;;;;;18.50;99.90;;;;;;5108737;28;19919;-55
2022/07/02 10:24:58;;;;;;;;;;;18.60;99.90;;;;;;5107191;28;19931;-55
2022/07/02 10:27:26;;;;;;;;;;;18.80;99.90;;;;;;5108114;28;20362;-56
2022/07/02 10:29:53;;;;;;;;;;;18.90;99.90;;;;;;5090298;28;19920;-56
2022/07/02 10:32:35;;;;;;;;;;;19.00;99.90;;;;;;5086573;28;20319;-58
2022/07/02 10:35:02;;;;;;;;;;;19.00;99.90;;;;;;5096172;28;19931;-55
2022/07/02 10:37:31;;;;;;;;;;;19.00;99.90;;;;;;5091161;28;20298;-56
2022/07/02 10:40:00;;;;;;;;;;;18.90;99.90;;;;;;5091675;28;19953;-55
2022/07/02 10:42:36;;;;;;;;;;;19.00;99.90;;;;;;5091009;28;19931;-56
2022/07/02 10:45:17;;;;;;;;;;;19.10;99.90;;;;;;5095932;28;19927;-58
2022/07/02 10:48:14;;;;;;;;;;;19.20;98.50;;;;;;5103953;28;19946;-55
2022/07/02 10:50:43;;;;;;;;;;;19.10;99.00;;;;;;5071415;28;19924;-56
2022/07/02 10:53:12;;;;;;;;;;;19.10;99.60;;;;;;5096825;28;19919;-57
2022/07/02 10:55:55;;;;;;;;;;;19.40;99.90;;;;;;5100341;28;19923;-57
2022/07/02 10:58:23;;;;;;;;;;;19.60;99.00;;;;;;5097908;28;19927;-57
2022/07/02 11:00:51;;;;;;;;;;;19.80;99.00;;;;;;5095080;28;20305;-57
2022/07/02 11:03:18;;;;;;;;;;;19.80;98.30;;;;;;5106853;28;19926;-57
2022/07/02 11:05:56;;;;;;;;;;;19.90;97.70;;;;;;5101264;28;19920;-56
2022/07/02 11:08:44;;;;;;;;;;;19.80;97.50;;;;;;5106605;28;19923;-55
2022/07/02 11:11:13;;;;;;;;;;;19.80;97.30;;;;;;5100046;28;19927;-55
2022/07/02 11:13:55;;;;;;;;;;;19.80;96.10;;;;;;5095193;28;19959;-56
2022/07/02 11:16:27;;;;;;;;;;;19.70;96.40;;;;;;5102346;28;19926;-56
2022/07/02 11:18:55;;;;;;;;;;;19.60;97.10;;;;;;5096194;28;19927;-57
2022/07/02 11:21:23;;;;;;;;;;;19.70;96.60;;;;;;5098171;28;19927;-56
2022/07/02 11:23:51;;;;;;;;;;;19.60;95.90;;;;;;5098557;28;19924;-56
2022/07/02 11:26:22;;;;;;;;;;;19.40;96.10;;;;;;5098765;28;19935;-56
2022/07/02 11:28:50;;;;;;;;;;;19.40;96.20;;;;;;5093444;28;19927;-56
2022/07/02 11:31:18;;;;;;;;;;;19.50;96.80;;;;;;5091884;28;19931;-56
2022/07/02 11:33:47;;;;;;;;;;;19.60;96.40;;;;;;5092052;28;19920;-57
2022/07/02 11:36:15;;;;;;;;;;;19.70;95.80;;;;;;5089860;28;19920;-59
2022/07/02 11:38:45;;;;;;;;;;;19.70;95.50;;;;;;5089901;28;19923;-58
2022/07/02 11:41:16;;;;;;;;;;;19.80;95.40;;;;;;5090380;28;19920;-57
2022/07/02 11:43:44;;;;;;;;;;;19.90;94.90;;;;;;5089712;28;19943;-58
2022/07/02 11:46:13;;;;;;;;;;;19.90;94.90;;;;;;5089656;28;19920;-58
2022/07/02 11:48:41;;;;;;;;;;;20.00;94.10;;;;;;5089764;28;19927;-58
2022/07/02 11:51:08;;;;;;;;;;;20.10;93.70;;;;;;5088459;28;19927;-58
2022/07/02 11:53:36;;;;;;;;;;;20.10;93.30;;;;;;5089548;28;19920;-56
2022/07/02 11:56:05;;;;;;;;;;;20.30;94.20;;;;;;5089891;28;19927;-56
2022/07/02 11:58:43;;;;;;;;;;;20.50;92.90;;;;;;5088972;28;19927;-56
2022/07/02 12:01:20;;;;;;;;;;;20.70;93.10;;;;;;5088983;28;20390;-58
2022/07/02 12:03:48;;;;;;;;;;;20.90;92.60;;;;;;5090019;28;19920;-55
2022/07/02 12:06:16;;;;;;;;;;;21.00;92.80;;;;;;5091064;28;19927;-57
2022/07/02 12:08:44;;;;;;;;;;;21.00;91.90;;;;;;5089363;28;19920;-56
2022/07/02 12:11:12;;;;;;;;;;;21.00;91.90;;;;;;5089928;28;19920;-58
2022/07/02 12:13:39;;;;;;;;;;;20.90;92.10;;;;;;5088799;28;20295;-58
2022/07/02 12:16:17;;;;;;;;;;;20.80;92.20;;;;;;5089136;28;19927;-58
2022/07/02 12:18:55;;;;;;;;;;;20.70;91.60;;;;;;5092032;28;20367;-57
2022/07/02 12:21:28;;;;;;;;;;;20.60;91.80;;;;;;5096404;28;20318;-58
2022/07/02 12:23:55;;;;;;;;;;;20.50;91.60;;;;;;5088634;28;19920;-58
2022/07/02 12:26:23;;;;;;;;;;;20.50;91.50;;;;;;5090572;28;19920;-59
2022/07/02 12:31:49;;;;;;;;;;;20.40;91.90;;;;;;5090389;28;19920;-59
2022/07/02 12:34:21;;;;;;;;;;;20.40;92.10;;;;;;5089227;28;19920;-58
2022/07/02 12:36:51;;;;;;;;;;;20.50;92.00;;;;;;5088882;28;19924;-57
2022/07/02 12:39:19;;;;;;;;;;;20.50;91.60;;;;;;5088827;28;19931;-58
2022/07/02 12:41:47;;;;;;;;;;;20.80;92.70;;;;;;5090293;28;19927;-57
2022/07/02 12:44:15;;;;;;;;;;;21.30;92.80;;;;;;5091865;28;19927;-57
2022/07/02 12:46:48;;;;;;;;;;;22.00;91.90;;;;;;5092010;28;19920;-56
2022/07/02 12:49:16;;;;;;;;;;;22.80;90.80;;;;;;5091936;28;20397;-58
2022/07/02 12:51:54;;;;;;;;;;;23.30;86.50;;;;;;5091685;28;19920;-58
2022/07/02 12:54:32;;;;;;;;;;;23.70;86.50;;;;;;5090476;28;19932;-60
2022/07/02 12:57:04;;;;;;;;;;;24.00;84.00;;;;;;5090399;28;19942;-58
2022/07/02 12:59:31;;;;;;;;;;;23.90;82.20;;;;;;5091460;28;19921;-57
2022/07/02 13:01:59;;;;;;;;;;;23.40;81.30;;;;;;5091469;28;20446;-59
2022/07/02 13:04:26;;;;;;;;;;;22.90;82.10;;;;;;5091526;28;19943;-59
2022/07/02 13:06:54;;;;;;;;;;;22.40;82.00;;;;;;5091448;28;19927;-59
2022/07/02 13:09:21;;;;;;;;;;;21.90;83.40;;;;;;5087951;28;19927;-59
2022/07/02 13:11:48;;;;;;;;;;;21.50;85.30;;;;;;5088192;28;19931;-59
2022/07/02 13:14:16;;;;;;;;;;;21.40;86.90;;;;;;5089316;28;19920;-57
2022/07/02 13:16:43;;;;;;;;;;;21.20;85.80;;;;;;5087198;28;19920;-59
2022/07/02 13:19:11;;;;;;;;;;;21.00;87.10;;;;;;5087559;28;19920;-59
2022/07/02 13:21:38;;;;;;;;;;;21.00;87.90;;;;;;5087673;28;19920;-59
2022/07/02 13:24:06;;;;;;;;;;;21.00;87.10;;;;;;5087944;28;19924;-58
2022/07/02 13:26:33;;;;;;;;;;;21.00;88.30;;;;;;5087476;28;19927;-59